Time;durP1;ratioP1;P1;durP2;ratioP2;P2;SDS_P1;SDS_P2;PMS_P1;PMS_P2;Temp;Humidity;BMP_temperature;BMP_pressure;BME280_temperature;BME280_humidity;BME280_pressure;Samples;Min_cycle;Max_cycle;Signal;HPM_P1;HPM_P2
2021/08/30 00:03:17;;;;;;;15.20;13.60;;;;;;;13.29;85.95;98293.30;233689;1203;22437;-77
2021/08/30 00:08:22;;;;;;;13.80;12.30;;;;;;;13.31;86.25;98289.35;233769;1202;22572;-77
2021/08/30 00:13:38;;;;;;;13.40;12.00;;;;;;;13.32;86.10;98283.38;234047;1201;25342;-77
2021/08/30 00:18:42;;;;;;;13.60;11.80;;;;;;;13.32;86.14;98287.98;233812;1209;22473;-77
2021/08/30 00:23:52;;;;;;;14.20;12.40;;;;;;;13.37;86.21;98283.02;233908;1203;22515;-78
2021/08/30 00:28:56;;;;;;;11.70;10.60;;;;;;;13.33;85.64;98271.82;233850;1201;24100;-76
2021/08/30 00:33:59;;;;;;;13.10;11.80;;;;;;;13.31;85.63;98281.65;234070;1196;26330;-77
2021/08/30 00:39:02;;;;;;;11.90;10.80;;;;;;;13.31;85.82;98277.83;233879;1201;24108;-77
2021/08/30 00:44:21;;;;;;;12.00;10.80;;;;;;;13.30;85.49;98283.46;234013;1195;24055;-78
2021/08/30 00:49:24;;;;;;;11.40;10.30;;;;;;;13.29;85.51;98278.86;234004;1195;22464;-77
2021/08/30 00:54:27;;;;;;;12.40;11.20;;;;;;;13.29;85.46;98276.31;233970;1201;22440;-76
2021/08/30 00:59:31;;;;;;;11.60;10.50;;;;;;;13.22;85.22;98279.77;234119;1195;25167;-76
2021/08/30 01:04:38;;;;;;;12.80;10.90;;;;;;;13.18;85.42;98280.73;233892;1201;24585;-78
2021/08/30 01:10:14;;;;;;;11.70;10.30;;;;;;;13.20;85.59;98283.56;233978;1202;22481;-77
2021/08/30 01:15:23;;;;;;;12.80;11.50;;;;;;;13.22;85.63;98275.50;234089;1201;25198;-75
2021/08/30 01:20:37;;;;;;;16.20;11.80;;;;;;;13.21;85.37;98271.36;233636;1194;24021;-75
2021/08/30 01:25:47;;;;;;;15.70;11.80;;;;;;;13.16;85.14;98270.40;233711;1201;24041;-77
2021/08/30 01:31:12;;;;;;;14.40;12.70;;;;;;;13.07;85.03;98272.21;233662;1201;22460;-77
2021/08/30 01:36:32;;;;;;;14.30;12.80;;;;;;;12.99;85.23;98272.37;233700;1201;24091;-77
2021/08/30 01:41:36;;;;;;;14.40;12.70;;;;;;;12.98;85.56;98267.79;233765;1202;22532;-77
2021/08/30 01:46:41;;;;;;;15.90;14.20;;;;;;;13.00;85.74;98267.57;233817;1201;24071;-77
2021/08/30 01:51:47;;;;;;;16.00;13.50;;;;;;;12.95;85.32;98262.89;233942;1201;24067;-78
2021/08/30 01:56:54;;;;;;;15.20;13.50;;;;;;;12.91;85.64;98260.98;234085;1201;23657;-77
2021/08/30 02:01:58;;;;;;;15.50;13.90;;;;;;;12.85;85.65;98255.83;233802;1204;22458;-75
2021/08/30 02:07:05;;;;;;;16.40;13.50;;;;;;;12.78;85.77;98261.83;233878;1193;25284;-79
2021/08/30 02:12:07;;;;;;;14.20;12.60;;;;;;;12.76;86.10;98263.24;233903;1202;22461;-77
2021/08/30 02:17:20;;;;;;;15.60;14.00;;;;;;;12.75;86.16;98258.16;233903;1201;24085;-76
2021/08/30 02:22:50;;;;;;;16.00;14.10;;;;;;;12.75;86.16;98253.08;233884;1209;25236;-78
2021/08/30 02:28:11;;;;;;;18.80;16.80;;;;;;;12.75;86.32;98252.32;233456;1209;24053;-77
2021/08/30 02:33:15;;;;;;;20.20;18.10;;;;;;;12.74;86.32;98257.56;233668;1201;22644;-77
2021/08/30 02:38:18;;;;;;;19.60;17.30;;;;;;;12.74;86.51;98257.02;233617;1195;24111;-77
2021/08/30 02:43:33;;;;;;;21.00;18.80;;;;;;;12.74;86.60;98259.27;233647;1202;24188;-75
2021/08/30 02:48:39;;;;;;;19.30;17.30;;;;;;;12.72;86.42;98260.21;233554;1201;22448;-77
2021/08/30 02:53:44;;;;;;;17.40;15.60;;;;;;;12.70;86.66;98251.45;233744;1195;25201;-78
2021/08/30 02:58:47;;;;;;;18.70;16.80;;;;;;;12.70;86.61;98246.94;233687;1202;23017;-76
2021/08/30 03:03:51;;;;;;;19.80;16.60;;;;;;;12.68;86.46;98247.60;233794;1201;24229;-79
2021/08/30 03:08:57;;;;;;;18.40;16.50;;;;;;;12.71;86.93;98251.67;233679;1203;25154;-78
2021/08/30 03:14:02;;;;;;;18.60;16.70;;;;;;;12.70;86.49;98258.66;233552;1201;25178;-76
2021/08/30 03:19:11;;;;;;;18.10;16.30;;;;;;;12.70;86.74;98259.77;233583;1202;25178;-75
2021/08/30 03:24:16;;;;;;;19.10;16.80;;;;;;;12.69;86.51;98251.05;233675;1195;22844;-77
2021/08/30 03:29:31;;;;;;;18.90;17.00;;;;;;;12.66;86.68;98246.39;233504;1201;24224;-76
2021/08/30 03:34:35;;;;;;;17.40;15.60;;;;;;;12.66;86.58;98247.38;233550;1201;22464;-76
2021/08/30 03:39:42;;;;;;;17.70;15.80;;;;;;;12.65;86.63;98248.41;233605;1202;25210;-75
2021/08/30 03:44:56;;;;;;;17.40;15.60;;;;;;;12.65;86.73;98249.55;233837;1201;24154;-77
2021/08/30 03:50:00;;;;;;;17.40;15.70;;;;;;;12.61;86.63;98250.96;233566;1208;24104;-76
2021/08/30 03:55:04;;;;;;;17.50;15.70;;;;;;;12.59;86.72;98251.04;233525;1202;22447;-75
2021/08/30 04:00:21;;;;;;;15.50;13.90;;;;;;;12.57;86.74;98250.18;233464;1209;24074;-77
2021/08/30 04:05:28;;;;;;;16.90;15.00;;;;;;;12.56;86.93;98255.13;233905;1201;24058;-77
2021/08/30 04:10:33;;;;;;;15.80;14.20;;;;;;;12.58;87.04;98257.61;233814;1197;22458;-76
2021/08/30 04:16:03;;;;;;;16.00;13.80;;;;;;;12.60;87.02;98255.48;234283;1201;22473;-78
2021/08/30 04:21:17;;;;;;;16.00;14.30;;;;;;;12.64;87.25;98262.36;233725;1210;22448;-77
2021/08/30 04:26:26;;;;;;;15.60;14.10;;;;;;;12.67;86.98;98263.10;233804;1200;24023;-77
2021/08/30 04:31:28;;;;;;;14.90;13.40;;;;;;;12.65;86.69;98268.77;233789;1202;24282;-74
2021/08/30 04:36:31;;;;;;;15.50;14.00;;;;;;;12.68;87.16;98275.41;233751;1194;24055;-77
2021/08/30 04:41:33;;;;;;;14.90;13.40;;;;;;;12.74;87.14;98281.37;233947;1201;24068;-77
2021/08/30 04:46:51;;;;;;;15.60;13.90;;;;;;;12.77;87.05;98288.48;233750;1202;22549;-77
2021/08/30 04:52:04;;;;;;;16.20;14.50;;;;;;;12.76;87.24;98290.33;233732;1202;24124;-75
2021/08/30 04:57:20;;;;;;;17.60;15.40;;;;;;;12.79;87.22;98290.83;233631;1204;22812;-78
2021/08/30 05:02:22;;;;;;;17.80;16.00;;;;;;;12.78;87.32;98290.77;234126;1202;24135;-77
2021/08/30 05:07:30;;;;;;;17.20;15.00;;;;;;;12.80;87.45;98295.08;233992;1201;22891;-77
2021/08/30 05:12:53;;;;;;;18.10;16.00;;;;;;;12.85;88.16;98291.74;233773;1202;24722;-77
2021/08/30 05:17:56;;;;;;;17.60;15.80;;;;;;;12.95;88.35;98290.91;233957;1207;24138;-75
2021/08/30 05:22:59;;;;;;;18.60;16.60;;;;;;;12.91;87.76;98289.51;233861;1201;24077;-77
2021/08/30 05:28:01;;;;;;;19.60;16.70;;;;;;;12.94;88.33;98291.35;233825;1202;22447;-77
2021/08/30 05:33:06;;;;;;;21.00;17.40;;;;;;;12.95;88.14;98296.13;234006;1200;22623;-75
2021/08/30 05:38:09;;;;;;;21.10;18.30;;;;;;;13.00;88.63;98292.04;233804;1205;22460;-77
2021/08/30 05:43:11;;;;;;;21.80;19.10;;;;;;;12.97;88.32;98287.88;234266;1201;24224;-78
2021/08/30 05:48:13;;;;;;;20.20;18.00;;;;;;;12.95;88.40;98287.24;234451;1205;24125;-77
2021/08/30 05:53:22;;;;;;;24.10;18.70;;;;;;;12.88;88.60;98291.54;234618;1202;22556;-78
2021/08/30 05:58:24;;;;;;;21.70;19.30;;;;;;;12.86;88.56;98287.96;234799;1202;22449;-77
2021/08/30 06:03:27;;;;;;;21.90;19.60;;;;;;;12.84;89.08;98278.29;234742;1200;22689;-77
2021/08/30 06:08:30;;;;;;;23.20;20.60;;;;;;;12.84;89.03;98272.20;234699;1201;22436;-82
2021/08/30 06:13:36;;;;;;;19.90;17.80;;;;;;;12.78;88.65;98274.27;234795;1205;22464;-78
2021/08/30 06:18:39;;;;;;;24.30;21.10;;;;;;;12.76;88.78;98280.93;234677;1201;22524;-77
2021/08/30 06:23:42;;;;;;;21.60;19.40;;;;;;;12.74;88.89;98283.23;234809;1193;22829;-77
2021/08/30 06:28:44;;;;;;;18.90;16.90;;;;;;;12.74;89.18;98285.52;234584;1205;22523;-78
2021/08/30 06:33:47;;;;;;;20.70;18.50;;;;;;;12.74;89.30;98283.20;234920;1202;24099;-78
2021/08/30 06:38:53;;;;;;;21.60;19.00;;;;;;;12.73;89.48;98280.92;234921;1201;25562;-78
2021/08/30 06:43:57;;;;;;;21.60;19.30;;;;;;;12.76;89.68;98286.69;234206;1206;24065;-75
2021/08/30 06:48:59;;;;;;;21.10;18.70;;;;;;;12.72;89.39;98286.89;233994;1199;22881;-75
2021/08/30 06:54:12;;;;;;;21.90;19.30;;;;;;;12.72;89.93;98283.58;234072;1201;22448;-77
2021/08/30 06:59:19;;;;;;;21.10;18.60;;;;;;;12.79;90.27;98288.30;234252;1203;22392;-78
2021/08/30 07:04:39;;;;;;;23.70;21.20;;;;;;;12.83;90.12;98281.86;233949;1202;26284;-76
2021/08/30 07:09:41;;;;;;;24.10;20.10;;;;;;;12.78;89.66;98280.86;233724;1203;24981;-76
2021/08/30 07:14:44;;;;;;;24.90;21.60;;;;;;;12.78;89.86;98284.38;233867;1201;24080;-77
2021/08/30 07:19:47;;;;;;;25.90;21.60;;;;;;;12.81;90.11;98289.38;233919;1206;22484;-76
2021/08/30 07:24:49;;;;;;;25.10;22.40;;;;;;;12.87;90.37;98288.89;233761;1203;24096;-77
2021/08/30 07:29:53;;;;;;;26.20;22.10;;;;;;;12.92;90.50;98293.08;233820;1205;24623;-77
2021/08/30 07:34:56;;;;;;;24.70;21.90;;;;;;;12.95;90.44;98295.96;234196;1205;24775;-83
2021/08/30 07:39:59;;;;;;;25.00;22.10;;;;;;;12.91;90.30;98300.32;234407;1206;22527;-78
2021/08/30 07:45:16;;;;;;;26.70;21.50;;;;;;;12.94;90.36;98302.77;234118;1205;24329;-75
2021/08/30 07:50:39;;;;;;;25.00;21.60;;;;;;;12.97;90.45;98305.36;234346;1203;22510;-77
2021/08/30 07:55:42;;;;;;;25.40;22.90;;;;;;;13.01;90.60;98304.38;234339;1205;24220;-76
2021/08/30 08:00:58;;;;;;;23.80;21.20;;;;;;;13.04;90.55;98306.73;234252;1202;22497;-75
2021/08/30 08:06:28;;;;;;;21.20;18.60;;;;;;;13.13;90.75;98308.21;234295;1202;25172;-79
2021/08/30 08:11:39;;;;;;;21.40;19.20;;;;;;;13.18;90.87;98314.77;234294;1205;22535;-79
2021/08/30 08:16:46;;;;;;;24.10;19.80;;;;;;;13.23;90.83;98319.19;234560;1204;24175;-78
2021/08/30 08:21:49;;;;;;;23.50;20.30;;;;;;;13.24;90.78;98327.39;234408;1201;25081;-78
2021/08/30 08:26:52;;;;;;;23.30;18.20;;;;;;;13.26;90.74;98330.36;234258;1201;22450;-78
2021/08/30 08:31:55;;;;;;;21.40;18.50;;;;;;;13.25;90.56;98332.25;233995;1202;24055;-77
2021/08/30 08:37:07;;;;;;;18.80;16.80;;;;;;;13.28;90.64;98330.52;234551;1196;24057;-76
2021/08/30 08:42:10;;;;;;;20.10;16.90;;;;;;;13.22;90.14;98337.59;234333;1201;22829;-76
2021/08/30 08:47:16;;;;;;;22.00;18.40;;;;;;;13.15;90.40;98346.60;234852;1201;22504;-81
2021/08/30 08:52:22;;;;;;;24.30;20.60;;;;;;;13.13;90.92;98346.11;234529;1202;22462;-84
2021/08/30 08:57:29;;;;;;;24.20;20.80;;;;;;;13.10;90.77;98340.36;234655;1202;25113;-82
2021/08/30 09:02:34;;;;;;;22.20;18.20;;;;;;;13.12;91.03;98342.16;234417;1200;25449;-79
2021/08/30 09:07:41;;;;;;;25.40;20.40;;;;;;;13.26;91.12;98337.36;234513;1202;22857;-80
2021/08/30 09:12:48;;;;;;;35.80;26.70;;;;;;;13.38;91.26;98331.88;235397;1201;22910;-78
2021/08/30 09:17:56;;;;;;;42.90;30.00;;;;;;;13.51;91.17;98338.95;234342;1203;25195;-78
2021/08/30 09:23:14;;;;;;;34.90;25.90;;;;;;;13.50;91.04;98345.77;234361;1202;22450;-81
2021/08/30 09:28:30;;;;;;;40.30;27.40;;;;;;;13.40;90.92;98349.70;234966;1200;22463;-79
2021/08/30 09:33:46;;;;;;;36.60;27.10;;;;;;;13.32;91.09;98347.43;235463;1205;24171;-79
2021/08/30 09:38:53;;;;;;;37.10;27.50;;;;;;;13.26;91.27;98349.61;234799;1202;22455;-79
2021/08/30 09:44:04;;;;;;;57.20;33.20;;;;;;;13.23;91.44;98350.08;235098;1200;25512;-80
2021/08/30 09:49:09;;;;;;;36.60;26.10;;;;;;;13.21;91.63;98349.89;234753;1201;24485;-78
2021/08/30 09:54:18;;;;;;;37.10;27.30;;;;;;;13.22;91.63;98354.63;234770;1202;22702;-79
2021/08/30 09:59:24;;;;;;;48.80;32.50;;;;;;;13.13;91.55;98352.56;234660;1201;24294;-78
2021/08/30 10:04:29;;;;;;;45.70;30.60;;;;;;;13.17;92.30;98361.59;234503;1202;22451;-79
2021/08/30 10:09:34;;;;;;;52.20;32.80;;;;;;;13.23;92.46;98362.29;234845;1202;24031;-79
2021/08/30 10:14:38;;;;;;;48.90;32.10;;;;;;;13.39;93.34;98356.65;234639;1203;22393;-78
2021/08/30 10:19:41;;;;;;;42.80;30.80;;;;;;;13.61;93.19;98349.36;235266;1201;22486;-79
2021/08/30 10:24:44;;;;;;;49.30;31.80;;;;;;;13.71;92.50;98353.27;234507;1202;22460;-80
2021/08/30 10:30:07;;;;;;;51.00;32.10;;;;;;;13.84;92.80;98348.02;234763;1202;24162;-79
2021/08/30 10:35:24;;;;;;;49.00;32.30;;;;;;;13.96;92.40;98340.48;234807;1203;24524;-77
2021/08/30 10:40:32;;;;;;;43.20;29.10;;;;;;;14.03;92.49;98342.23;234521;1205;22463;-79
2021/08/30 10:45:44;;;;;;;47.30;30.90;;;;;;;14.21;92.75;98340.70;234418;1202;23163;-78
2021/08/30 10:50:51;;;;;;;51.20;31.00;;;;;;;14.35;92.59;98344.36;235678;1202;25044;-79
2021/08/30 10:56:07;;;;;;;45.50;30.30;;;;;;;14.41;92.20;98346.57;236320;1201;22465;-80
2021/08/30 11:01:12;;;;;;;57.30;34.40;;;;;;;14.45;91.96;98345.06;235582;1208;22473;-79
2021/08/30 11:06:15;;;;;;;49.70;31.40;;;;;;;14.51;92.13;98343.17;235535;1206;22495;-80
2021/08/30 11:11:21;;;;;;;52.20;32.90;;;;;;;14.58;92.13;98344.35;235150;1205;24147;-81
2021/08/30 11:16:26;;;;;;;58.50;33.70;;;;;;;14.63;91.95;98344.78;235474;1212;23099;-79
2021/08/30 11:21:59;;;;;;;56.90;33.40;;;;;;;14.69;92.15;98345.04;235136;1202;22482;-80
2021/08/30 11:27:10;;;;;;;45.90;30.00;;;;;;;14.80;92.10;98346.60;235042;1205;22486;-81
2021/08/30 11:32:15;;;;;;;43.60;28.90;;;;;;;14.80;91.74;98348.05;235172;1205;22587;-82
2021/08/30 11:37:23;;;;;;;50.20;31.20;;;;;;;14.81;91.86;98347.52;235368;1205;22466;-79
2021/08/30 11:42:30;;;;;;;56.10;32.80;;;;;;;14.88;92.05;98343.66;233664;1205;22810;-81
2021/08/30 11:47:33;;;;;;;58.50;34.50;;;;;;;14.96;91.97;98348.42;234772;1205;22462;-80
2021/08/30 11:52:39;;;;;;;58.80;35.40;;;;;;;14.99;91.69;98343.99;234469;1205;22661;-77
2021/08/30 11:57:45;;;;;;;53.90;31.80;;;;;;;15.07;91.97;98347.37;234542;1205;25187;-77
2021/08/30 12:02:53;;;;;;;55.30;33.40;;;;;;;15.11;91.63;98345.91;233599;1200;24150;-79
2021/08/30 12:07:59;;;;;;;55.80;34.40;;;;;;;15.18;91.56;98343.80;233843;1205;22596;-79
2021/08/30 12:18:20;;;;;;;52.60;32.40;;;;;;;15.32;91.25;98348.77;233675;1207;24058;-77
2021/08/30 12:23:27;;;;;;;53.20;33.80;;;;;;;15.29;91.17;98349.11;233886;1207;25094;-78
2021/08/30 12:28:31;;;;;;;44.70;30.80;;;;;;;15.31;91.35;98350.02;234119;1204;25295;-79
2021/08/30 12:33:35;;;;;;;41.80;29.30;;;;;;;15.34;90.99;98355.91;233972;1204;24118;-79
2021/08/30 12:38:39;;;;;;;47.00;30.10;;;;;;;15.31;90.75;98355.04;234223;1205;24092;-80
2021/08/30 12:43:46;;;;;;;36.10;27.00;;;;;;;15.31;90.73;98354.88;235137;1204;24141;-79
2021/08/30 12:48:50;;;;;;;43.00;29.30;;;;;;;15.34;90.48;98355.14;234607;1204;23950;-80
2021/08/30 12:53:53;;;;;;;46.00;30.20;;;;;;;15.33;90.24;98356.04;235003;1204;22477;-83
2021/08/30 12:58:56;;;;;;;44.80;31.00;;;;;;;15.35;90.38;98351.80;235872;1203;25341;-78
2021/08/30 13:03:59;;;;;;;44.50;30.40;;;;;;;15.40;90.21;98346.58;235005;1212;24185;-75
2021/08/30 13:09:02;;;;;;;48.10;32.10;;;;;;;15.47;90.36;98346.30;234727;1201;22671;-81
2021/08/30 13:14:07;;;;;;;44.30;31.40;;;;;;;15.56;90.35;98342.66;235229;1204;25332;-79
2021/08/30 13:19:13;;;;;;;48.60;31.00;;;;;;;15.62;89.96;98338.79;234318;1204;22473;-79
2021/08/30 13:24:16;;;;;;;46.70;32.60;;;;;;;15.65;89.76;98333.39;233778;1198;22419;-79
2021/08/30 13:29:19;;;;;;;51.90;34.40;;;;;;;15.71;89.96;98334.42;234104;1204;25178;-79
2021/08/30 13:34:22;;;;;;;50.60;33.20;;;;;;;15.75;89.82;98329.61;234427;1203;25120;-80
2021/08/30 13:39:25;;;;;;;51.10;34.20;;;;;;;15.86;89.86;98334.55;234947;1204;23818;-79
2021/08/30 13:44:28;;;;;;;50.30;31.60;;;;;;;15.90;89.25;98330.67;234185;1206;22466;-79
2021/08/30 13:49:31;;;;;;;55.40;34.80;;;;;;;15.94;89.24;98332.03;234950;1204;24141;-80
2021/08/30 13:54:34;;;;;;;45.70;31.00;;;;;;;15.96;89.02;98325.16;234103;1197;22470;-79
2021/08/30 13:59:37;;;;;;;47.70;31.40;;;;;;;15.94;88.34;98322.91;234636;1206;22466;-78
2021/08/30 14:04:41;;;;;;;52.30;30.20;;;;;;;15.92;88.34;98325.56;234653;1205;22559;-79
2021/08/30 14:09:44;;;;;;;55.60;31.80;;;;;;;15.98;88.40;98324.98;235432;1207;24091;-81
2021/08/30 14:15:01;;;;;;;62.00;35.10;;;;;;;16.01;88.18;98332.28;235902;1205;22709;-81
2021/08/30 14:20:21;;;;;;;62.70;33.40;;;;;;;15.99;87.84;98336.92;235630;1206;24023;-81
2021/08/30 14:25:28;;;;;;;63.90;33.90;;;;;;;15.92;87.40;98340.99;235667;1205;24133;-80
2021/08/30 14:30:31;;;;;;;62.10;33.50;;;;;;;15.85;87.69;98341.02;235524;1212;23054;-80
2021/08/30 14:35:37;;;;;;;58.80;31.70;;;;;;;15.77;87.59;98341.23;235849;1205;22476;-80
2021/08/30 14:40:42;;;;;;;59.40;29.90;;;;;;;15.59;87.17;98345.33;235344;1207;22456;-87
2021/08/30 14:45:48;;;;;;;68.80;33.60;;;;;;;15.46;87.35;98345.95;235354;1206;22489;-82
2021/08/30 14:50:53;;;;;;;69.20;34.10;;;;;;;15.34;87.52;98344.66;235420;1207;24178;-82
2021/08/30 14:55:56;;;;;;;74.80;35.40;;;;;;;15.23;87.49;98350.19;235780;1207;24038;-81
2021/08/30 15:00:59;;;;;;;73.70;33.10;;;;;;;15.03;87.22;98350.41;235523;1206;24077;-81
2021/08/30 15:06:02;;;;;;;78.40;36.10;;;;;;;14.90;87.56;98346.15;235052;1206;22646;-82
2021/08/30 15:11:07;;;;;;;84.90;34.90;;;;;;;14.86;87.91;98340.15;234795;1206;22449;-79
2021/08/30 15:16:12;;;;;;;86.80;38.00;;;;;;;14.84;88.22;98340.77;235491;1205;25347;-81
2021/08/30 15:21:15;;;;;;;97.60;42.90;;;;;;;14.88;88.49;98339.73;235319;1207;22764;-82
2021/08/30 15:26:21;;;;;;;99.00;42.00;;;;;;;14.92;88.52;98346.95;235024;1205;22470;-81
2021/08/30 15:31:23;;;;;;;108.10;43.20;;;;;;;14.94;88.38;98345.75;235605;1204;24016;-82
2021/08/30 15:36:28;;;;;;;110.80;46.30;;;;;;;14.93;88.47;98346.07;235607;1197;22459;-82
2021/08/30 15:41:31;;;;;;;94.60;39.90;;;;;;;14.98;88.88;98351.66;234687;1210;22529;-79
2021/08/30 15:46:35;;;;;;;112.80;44.50;;;;;;;14.98;88.68;98354.45;235109;1204;22466;-81
2021/08/30 15:51:39;;;;;;;103.00;43.00;;;;;;;14.91;88.41;98352.80;235074;1206;22786;-81
2021/08/30 15:56:42;;;;;;;92.50;40.80;;;;;;;14.84;88.43;98351.08;235264;1204;24201;-81
2021/08/30 16:01:45;;;;;;;95.80;42.20;;;;;;;14.77;88.89;98347.71;235563;1205;25366;-81
2021/08/30 16:06:50;;;;;;;108.30;44.80;;;;;;;14.78;89.00;98343.28;235262;1205;22482;-81
2021/08/30 16:11:53;;;;;;;108.60;43.70;;;;;;;14.82;89.62;98339.98;235423;1204;22669;-85
2021/08/30 16:16:56;;;;;;;108.20;42.70;;;;;;;14.94;90.55;98337.75;235454;1206;24068;-78
2021/08/30 16:22:02;;;;;;;103.70;40.60;;;;;;;15.02;89.84;98334.01;235539;1205;22413;-78
2021/08/30 16:27:05;;;;;;;103.10;42.20;;;;;;;14.97;89.13;98332.30;236000;1204;23634;-80
2021/08/30 16:32:09;;;;;;;87.70;38.10;;;;;;;14.93;89.11;98338.14;235621;1204;25180;-81
2021/08/30 16:37:11;;;;;;;105.70;42.40;;;;;;;14.88;89.31;98339.66;235704;1204;25196;-80
2021/08/30 16:42:14;;;;;;;99.60;38.30;;;;;;;14.86;89.38;98337.48;235310;1206;22453;-79
2021/08/30 16:47:17;;;;;;;104.20;42.60;;;;;;;14.81;89.44;98334.70;235312;1205;24099;-81
2021/08/30 16:52:20;;;;;;;98.30;38.90;;;;;;;14.76;89.52;98332.89;235632;1198;24054;-81
2021/08/30 16:57:23;;;;;;;92.70;35.40;;;;;;;14.67;89.60;98330.46;235182;1204;22477;-80
2021/08/30 17:02:26;;;;;;;85.20;36.30;;;;;;;14.58;89.57;98330.33;234580;1206;24134;-82
2021/08/30 17:07:30;;;;;;;107.20;40.40;;;;;;;14.44;89.51;98328.85;235602;1205;24080;-80
2021/08/30 17:12:33;;;;;;;82.50;33.70;;;;;;;14.34;89.83;98319.91;234964;1197;22493;-79
2021/08/30 17:17:37;;;;;;;89.40;37.60;;;;;;;14.28;89.82;98323.14;235240;1205;24099;-79
2021/08/30 17:22:41;;;;;;;76.60;32.40;;;;;;;14.26;90.12;98323.19;234602;1206;25337;-83
2021/08/30 17:27:44;;;;;;;73.60;31.60;;;;;;;14.19;89.96;98323.63;235242;1206;25200;-81
2021/08/30 17:32:48;;;;;;;90.60;36.40;;;;;;;14.12;90.17;98325.33;235446;1206;22786;-80
2021/08/30 17:37:50;;;;;;;94.20;36.90;;;;;;;14.14;90.94;98326.43;235282;1206;24104;-81
2021/08/30 17:42:53;;;;;;;96.10;37.70;;;;;;;14.13;90.78;98322.79;235750;1204;23619;-79
2021/08/30 17:47:58;;;;;;;93.00;35.90;;;;;;;14.11;90.80;98323.47;234952;1204;24028;-81
2021/08/30 17:53:01;;;;;;;89.90;36.60;;;;;;;14.09;90.84;98320.67;235005;1198;24115;-82
2021/08/30 17:58:04;;;;;;;86.00;32.90;;;;;;;14.08;91.00;98325.72;234749;1199;24769;-80
2021/08/30 18:03:07;;;;;;;90.20;35.50;;;;;;;14.06;90.92;98321.80;235558;1204;22538;-80
2021/08/30 18:08:10;;;;;;;88.10;34.20;;;;;;;14.03;90.93;98322.77;235714;1204;24176;-81
2021/08/30 18:13:12;;;;;;;105.30;38.20;;;;;;;14.00;91.07;98322.16;234970;1205;22570;-83
2021/08/30 18:18:16;;;;;;;97.20;37.30;;;;;;;14.02;91.60;98327.17;235703;1205;22529;-81
2021/08/30 18:23:18;;;;;;;79.50;30.60;;;;;;;14.03;91.68;98325.20;235678;1204;22470;-81
2021/08/30 18:28:26;;;;;;;99.40;36.20;;;;;;;13.99;91.27;98328.25;235356;1204;22507;-79
2021/08/30 18:33:30;;;;;;;98.40;33.50;;;;;;;13.95;91.59;98324.98;234392;1205;24157;-79
2021/08/30 18:38:48;;;;;;;95.10;33.70;;;;;;;13.94;91.75;98325.23;235109;1207;24119;-81
2021/08/30 18:44:09;;;;;;;80.90;30.20;;;;;;;13.85;91.29;98321.64;235245;1206;24046;-87
2021/08/30 18:49:13;;;;;;;79.90;31.00;;;;;;;13.72;91.05;98324.62;235748;1204;22448;-83
2021/08/30 18:54:17;;;;;;;74.10;25.20;;;;;;;13.61;91.38;98318.77;235235;1207;24020;-82
2021/08/30 18:59:27;;;;;;;62.60;24.00;;;;;;;13.53;91.50;98316.14;234975;1205;24151;-81
2021/08/30 19:04:30;;;;;;;67.70;24.30;;;;;;;13.45;91.69;98310.25;234432;1204;25750;-82
2021/08/30 19:09:32;;;;;;;66.40;23.00;;;;;;;13.38;91.90;98308.71;235177;1198;22944;-84
2021/08/30 19:14:35;;;;;;;66.70;23.70;;;;;;;13.31;92.08;98305.11;235111;1206;25322;-79
2021/08/30 19:19:38;;;;;;;69.70;24.40;;;;;;;13.28;92.33;98304.86;234307;1204;24039;-81
2021/08/30 19:24:42;;;;;;;70.50;25.00;;;;;;;13.27;92.42;98302.55;235380;1205;22484;-81
2021/08/30 19:29:45;;;;;;;62.40;24.30;;;;;;;13.31;92.72;98300.48;234591;1204;24243;-80
2021/08/30 19:34:49;;;;;;;61.00;21.10;;;;;;;13.36;92.73;98306.65;235243;1204;24201;-82
2021/08/30 19:39:52;;;;;;;64.40;26.10;;;;;;;13.40;92.79;98301.36;235190;1204;22370;-81
2021/08/30 19:44:55;;;;;;;66.10;23.20;;;;;;;13.41;92.58;98290.63;235149;1197;22513;-80
2021/08/30 19:49:57;;;;;;;57.00;21.50;;;;;;;13.35;92.54;98289.62;234219;1205;22577;-80
2021/08/30 19:55:01;;;;;;;57.90;20.10;;;;;;;13.31;92.61;98280.42;234305;1201;22464;-80
2021/08/30 20:00:06;;;;;;;67.70;24.20;;;;;;;13.28;92.63;98277.61;234382;1201;24103;-80
2021/08/30 20:05:14;;;;;;;64.20;22.90;;;;;;;13.26;92.70;98281.50;235415;1204;25110;-80
2021/08/30 20:10:17;;;;;;;60.50;20.20;;;;;;;13.26;92.95;98286.66;235267;1198;22467;-80
2021/08/30 20:15:20;;;;;;;56.50;20.80;;;;;;;13.28;93.03;98286.60;235116;1205;22475;-81
2021/08/30 20:20:24;;;;;;;65.80;22.60;;;;;;;13.28;92.93;98288.98;235200;1204;24101;-81
2021/08/30 20:25:32;;;;;;;58.70;22.30;;;;;;;13.34;93.17;98291.06;235219;1205;25261;-80
2021/08/30 20:30:35;;;;;;;60.10;21.60;;;;;;;13.40;93.11;98293.89;234834;1207;22575;-80
2021/08/30 20:35:39;;;;;;;58.10;22.30;;;;;;;13.47;93.30;98291.89;234573;1204;23111;-80
2021/08/30 20:40:43;;;;;;;65.40;23.30;;;;;;;13.52;92.93;98285.80;234290;1204;24039;-82
2021/08/30 20:45:58;;;;;;;52.50;20.90;;;;;;;13.55;92.90;98281.46;234918;1198;22501;-81
2021/08/30 20:51:21;;;;;;;50.30;19.60;;;;;;;13.58;92.84;98283.73;235126;1204;22515;-81
2021/08/30 20:56:24;;;;;;;57.60;21.40;;;;;;;13.60;92.60;98279.05;235237;1205;24078;-82
2021/08/30 21:01:28;;;;;;;59.70;21.30;;;;;;;13.60;92.28;98281.02;234900;1204;22451;-82
2021/08/30 21:06:34;;;;;;;55.20;21.40;;;;;;;13.61;92.50;98276.58;235141;1204;22471;-80
2021/08/30 21:11:49;;;;;;;54.00;19.00;;;;;;;13.56;91.92;98273.06;234890;1207;22497;-80
2021/08/30 21:16:53;;;;;;;53.20;16.60;;;;;;;13.43;91.67;98270.13;235359;1206;22530;-80
2021/08/30 21:21:56;;;;;;;50.80;17.60;;;;;;;13.32;91.89;98265.87;234262;1198;22582;-82
2021/08/30 21:26:59;;;;;;;48.10;17.80;;;;;;;13.23;92.25;98257.40;235136;1204;22577;-80
2021/08/30 21:32:02;;;;;;;47.00;16.90;;;;;;;13.11;92.54;98254.27;234841;1206;22465;-79
2021/08/30 21:37:05;;;;;;;23.30;6.80;;;;;;;13.02;92.67;98252.44;235111;1204;22485;-81
2021/08/30 21:42:14;;;;;;;20.10;6.90;;;;;;;12.99;92.83;98247.83;235200;1204;25213;-80
2021/08/30 21:47:19;;;;;;;24.40;7.40;;;;;;;12.97;92.94;98249.67;235010;1205;22468;-80
2021/08/30 21:52:22;;;;;;;19.80;6.30;;;;;;;12.96;93.24;98236.63;234298;1204;24147;-81
2021/08/30 21:57:25;;;;;;;16.30;6.00;;;;;;;12.95;93.32;98229.30;235026;1205;22492;-90
2021/08/30 22:02:27;;;;;;;19.00;6.20;;;;;;;12.96;93.40;98226.41;234825;1197;23942;-83
2021/08/30 22:07:34;;;;;;;24.40;6.80;;;;;;;12.97;93.43;98221.20;235026;1204;22457;-81
2021/08/30 22:12:37;;;;;;;15.10;5.50;;;;;;;12.98;93.44;98221.01;234880;1208;24201;-78
2021/08/30 22:17:40;;;;;;;20.50;5.50;;;;;;;13.00;93.48;98215.76;234200;1204;24062;-80
2021/08/30 22:22:45;;;;;;;15.70;4.90;;;;;;;13.01;93.47;98206.77;233894;1204;24173;-79
2021/08/30 22:27:48;;;;;;;18.60;5.80;;;;;;;13.02;93.55;98204.48;234321;1204;24072;-80
2021/08/30 22:32:50;;;;;;;12.60;5.10;;;;;;;13.02;93.58;98199.86;234778;1205;22501;-81
2021/08/30 22:37:54;;;;;;;12.40;4.20;;;;;;;13.01;93.58;98196.16;235050;1205;22580;-80
2021/08/30 22:42:56;;;;;;;15.40;5.00;;;;;;;13.03;93.52;98192.31;234236;1198;22521;-79
2021/08/30 22:48:12;;;;;;;12.70;4.30;;;;;;;13.08;93.63;98194.74;234846;1204;22473;-81
2021/08/30 22:53:36;;;;;;;20.00;5.30;;;;;;;13.12;93.39;98191.16;234157;1205;22570;-81
2021/08/30 22:58:38;;;;;;;14.00;4.60;;;;;;;13.16;93.44;98194.48;234076;1205;24072;-80
2021/08/30 23:03:41;;;;;;;16.90;5.00;;;;;;;13.22;93.53;98194.87;233800;1208;24102;-79
2021/08/30 23:08:44;;;;;;;15.40;5.20;;;;;;;13.24;93.32;98193.35;233896;1205;22449;-80
2021/08/30 23:13:48;;;;;;;13.90;4.40;;;;;;;13.26;93.50;98187.37;234526;1205;22482;-78
2021/08/30 23:18:53;;;;;;;20.40;5.10;;;;;;;13.29;93.32;98184.80;234184;1206;24239;-81